createdAt,value
2023-02-18T00:01:25.603Z,10.67
2023-02-18T00:03:52.876Z,10.63
2023-02-18T00:06:22.671Z,10.61
2023-02-18T00:08:50.254Z,10.56
2023-02-18T00:11:19.123Z,10.51
2023-02-18T00:13:57.741Z,10.45
2023-02-18T00:16:25.952Z,10.42
2023-02-18T00:19:01.427Z,10.39
2023-02-18T00:21:29.001Z,10.38
2023-02-18T00:23:55.921Z,10.34
2023-02-18T00:26:22.910Z,10.32
2023-02-18T00:28:51.546Z,10.30
2023-02-18T00:31:22.547Z,10.27
2023-02-18T00:33:49.821Z,10.25
2023-02-18T00:36:19.186Z,10.25
2023-02-18T00:38:54.874Z,10.22
2023-02-18T00:41:23.413Z,10.18
2023-02-18T00:43:50.260Z,10.15
2023-02-18T00:46:17.234Z,10.13
2023-02-18T00:48:44.438Z,10.11
2023-02-18T00:51:11.831Z,10.11
2023-02-18T00:53:39.585Z,10.08
2023-02-18T00:56:07.418Z,10.05
2023-02-18T00:58:35.972Z,10.04
2023-02-18T01:01:04.446Z,10.01
2023-02-18T01:03:32.621Z,10.00
2023-02-18T01:05:59.476Z,9.95
2023-02-18T01:08:26.434Z,9.94
2023-02-18T01:10:55.649Z,9.96
2023-02-18T01:13:22.552Z,9.94
2023-02-18T01:15:49.939Z,9.92
2023-02-18T01:18:17.347Z,9.92
2023-02-18T01:20:45.267Z,9.91
2023-02-18T01:23:13.258Z,9.91
2023-02-18T01:25:40.621Z,9.88
2023-02-18T01:28:08.251Z,9.88
2023-02-18T01:30:35.727Z,9.86
2023-02-18T01:33:02.532Z,9.87
2023-02-18T01:35:29.454Z,9.87
2023-02-18T01:37:56.283Z,9.87
2023-02-18T01:40:27.197Z,9.88
2023-02-18T01:42:54.873Z,9.85
2023-02-18T01:45:33.981Z,9.87
2023-02-18T01:48:15.440Z,9.85
2023-02-18T01:50:46.068Z,9.86
2023-02-18T01:53:16.840Z,9.86
2023-02-18T01:55:44.668Z,9.88
2023-02-18T01:58:13.017Z,9.87
2023-02-18T02:00:40.139Z,9.87
2023-02-18T02:03:07.461Z,9.87
2023-02-18T02:05:35.184Z,9.87
2023-02-18T02:08:03.507Z,9.89
2023-02-18T02:11:16.265Z,9.91
2023-02-18T02:14:13.524Z,9.92
2023-02-18T02:16:51.133Z,9.93
2023-02-18T02:19:57.854Z,9.96
2023-02-18T02:22:36.454Z,9.97
2023-02-18T02:25:14.780Z,9.97
2023-02-18T02:28:03.233Z,10.00
2023-02-18T02:30:51.068Z,10.02
2023-02-18T02:33:39.077Z,10.03
2023-02-18T02:36:16.859Z,10.05
2023-02-18T02:38:49.705Z,10.05
2023-02-18T02:41:25.495Z,10.06
2023-02-18T02:44:11.159Z,10.09
2023-02-18T02:46:46.080Z,10.09
2023-02-18T02:49:33.116Z,10.11
2023-02-18T02:52:13.511Z,10.12
2023-02-18T02:54:40.360Z,10.13
2023-02-18T02:57:16.262Z,10.15
2023-02-18T02:59:46.648Z,10.16
2023-02-18T03:02:34.097Z,10.15
2023-02-18T03:05:09.120Z,10.17
2023-02-18T03:07:46.982Z,10.17
2023-02-18T03:10:51.469Z,10.17
2023-02-18T03:13:24.037Z,10.19
2023-02-18T03:16:13.582Z,10.20
2023-02-18T03:18:47.024Z,10.22
2023-02-18T03:21:22.922Z,10.22
2023-02-18T03:23:56.427Z,10.24
2023-02-18T03:26:25.750Z,10.24
2023-02-18T03:28:55.037Z,10.24
2023-02-18T03:31:25.992Z,10.26
2023-02-18T03:33:59.422Z,10.25
2023-02-18T03:36:26.821Z,10.28
2023-02-18T03:39:03.111Z,10.28
2023-02-18T03:41:30.417Z,10.28
2023-02-18T03:44:03.841Z,10.28
2023-02-18T03:46:31.999Z,10.27
2023-02-18T03:48:58.994Z,10.28
2023-02-18T03:51:25.874Z,10.28
2023-02-18T03:53:52.675Z,10.29
2023-02-18T03:56:20.388Z,10.29
2023-02-18T03:58:47.213Z,10.28
2023-02-18T04:01:14.393Z,10.28
2023-02-18T04:03:41.664Z,10.30
2023-02-18T04:06:08.934Z,10.32
2023-02-18T04:08:36.298Z,10.32
2023-02-18T04:11:03.297Z,10.33
2023-02-18T04:13:30.167Z,10.34
2023-02-18T04:15:57.321Z,10.34
2023-02-18T04:18:24.601Z,10.34
2023-02-18T04:20:51.985Z,10.34
2023-02-18T04:23:18.872Z,10.35
2023-02-18T04:25:45.742Z,10.37
2023-02-18T04:28:15.385Z,10.35
2023-02-18T04:30:43.580Z,10.37
2023-02-18T04:33:10.594Z,10.38
2023-02-18T04:35:38.206Z,10.37
2023-02-18T04:38:05.114Z,10.37
2023-02-18T04:40:32.066Z,10.37
2023-02-18T04:42:59.484Z,10.36
2023-02-18T04:45:27.572Z,10.38
2023-02-18T04:47:54.644Z,10.38
2023-02-18T04:50:22.118Z,10.38
2023-02-18T04:52:49.381Z,10.37
2023-02-18T04:55:16.272Z,10.39
2023-02-18T04:57:43.059Z,10.38
2023-02-18T05:00:14.909Z,10.38
2023-02-18T05:02:41.784Z,10.38
2023-02-18T05:05:08.834Z,10.39
2023-02-18T05:07:36.806Z,10.39
2023-02-18T05:10:04.582Z,10.39
2023-02-18T05:12:31.422Z,10.39
2023-02-18T05:14:58.206Z,10.39
2023-02-18T05:17:25.021Z,10.38
2023-02-18T05:19:51.800Z,10.38
2023-02-18T05:22:18.678Z,10.39
2023-02-18T05:24:45.474Z,10.39
2023-02-18T05:27:12.257Z,10.38
2023-02-18T05:29:39.036Z,10.38
2023-02-18T05:32:06.419Z,10.36
2023-02-18T05:34:33.255Z,10.38
2023-02-18T05:37:00.035Z,10.37
2023-02-18T05:39:26.855Z,10.35
2023-02-18T05:41:53.654Z,10.37
2023-02-18T05:44:33.489Z,10.37
2023-02-18T05:47:06.828Z,10.38
2023-02-18T05:49:34.880Z,10.38
2023-02-18T05:52:02.165Z,10.38
2023-02-18T05:54:28.977Z,10.39
2023-02-18T05:56:55.857Z,10.38
2023-02-18T05:59:23.494Z,10.37
2023-02-18T06:01:50.634Z,10.38
2023-02-18T06:04:17.531Z,10.40
2023-02-18T06:06:44.510Z,10.39
2023-02-18T06:09:11.362Z,10.39
2023-02-18T06:11:38.467Z,10.40
2023-02-18T06:14:06.113Z,10.41
2023-02-18T06:16:33.108Z,10.39
2023-02-18T06:19:00.015Z,10.39
2023-02-18T06:21:26.988Z,10.40
2023-02-18T06:23:53.840Z,10.40
2023-02-18T06:26:20.859Z,10.41
2023-02-18T06:28:47.646Z,10.37
2023-02-18T06:31:14.786Z,10.40
2023-02-18T06:33:41.659Z,10.42
2023-02-18T06:36:12.253Z,10.40
2023-02-18T06:38:41.297Z,10.41
2023-02-18T06:41:08.724Z,10.42
2023-02-18T06:43:35.916Z,10.42
2023-02-18T06:46:03.516Z,10.42
2023-02-18T06:48:31.027Z,10.43
2023-02-18T06:50:58.480Z,10.43
2023-02-18T06:53:25.641Z,10.43
2023-02-18T06:55:52.413Z,10.44
2023-02-18T06:58:19.260Z,10.46
2023-02-18T07:00:46.111Z,10.47
2023-02-18T07:03:14.532Z,10.47
2023-02-18T07:05:42.394Z,10.49
2023-02-18T07:08:09.875Z,10.49
2023-02-18T07:10:36.886Z,10.51
2023-02-18T07:13:04.490Z,10.52
2023-02-18T07:15:31.505Z,10.54
2023-02-18T07:17:58.392Z,10.56
2023-02-18T07:20:26.166Z,10.57
2023-02-18T07:22:54.103Z,10.57
2023-02-18T07:25:23.145Z,10.60
2023-02-18T07:27:51.052Z,10.60
2023-02-18T07:30:21.424Z,10.62
2023-02-18T07:32:48.492Z,10.63
2023-02-18T07:35:17.696Z,10.64
2023-02-18T07:37:48.648Z,10.65
2023-02-18T07:40:18.209Z,10.67
2023-02-18T07:42:45.021Z,10.69
2023-02-18T07:45:12.878Z,10.70
2023-02-18T07:47:40.131Z,10.72
2023-02-18T07:50:07.698Z,10.73
2023-02-18T07:52:34.597Z,10.75
2023-02-18T07:55:01.652Z,10.76
2023-02-18T07:57:29.678Z,10.77
2023-02-18T07:59:56.499Z,10.82
2023-02-18T08:02:24.534Z,10.85
2023-02-18T08:04:51.930Z,10.87
2023-02-18T08:07:20.732Z,10.88
2023-02-18T08:09:49.177Z,10.91
2023-02-18T08:12:16.308Z,10.91
2023-02-18T08:14:43.145Z,10.94
2023-02-18T08:17:09.995Z,10.96
2023-02-18T08:19:36.859Z,10.97
2023-02-18T08:22:04.093Z,11.00
2023-02-18T08:24:30.926Z,11.01
2023-02-18T08:27:01.195Z,11.04
2023-02-18T08:29:29.798Z,11.05
2023-02-18T08:31:58.260Z,11.10
2023-02-18T08:34:25.965Z,11.13
2023-02-18T08:36:52.822Z,11.15
2023-02-18T08:39:19.640Z,11.17
2023-02-18T08:41:46.526Z,11.21
2023-02-18T08:44:13.417Z,11.24
2023-02-18T08:46:40.330Z,11.24
2023-02-18T08:49:07.245Z,11.26
2023-02-18T08:51:34.626Z,11.29
2023-02-18T08:54:01.558Z,11.30
2023-02-18T08:56:28.456Z,11.33
2023-02-18T08:58:55.308Z,11.35
2023-02-18T09:01:22.201Z,11.36
2023-02-18T09:03:49.273Z,11.39
2023-02-18T09:06:16.354Z,11.40
2023-02-18T09:08:43.237Z,11.43
2023-02-18T09:11:11.603Z,11.45
2023-02-18T09:13:38.925Z,11.47
2023-02-18T09:16:09.009Z,11.48
2023-02-18T09:18:36.094Z,11.53
2023-02-18T09:21:06.021Z,11.55
2023-02-18T09:23:34.063Z,11.58
2023-02-18T09:26:05.007Z,11.59
2023-02-18T09:28:32.142Z,11.63
2023-02-18T09:31:04.724Z,11.66
2023-02-18T09:33:31.570Z,11.70
2023-02-18T09:35:58.344Z,11.72
2023-02-18T09:38:25.152Z,11.76
2023-02-18T09:40:54.575Z,11.79
2023-02-18T09:43:32.255Z,11.83
2023-02-18T09:46:00.978Z,11.87
2023-02-18T09:48:31.671Z,11.90
2023-02-18T09:50:59.127Z,11.93
2023-02-18T09:53:26.456Z,11.98
2023-02-18T09:55:56.793Z,12.02
2023-02-18T09:58:30.300Z,12.05
2023-02-18T10:01:15.997Z,12.10
2023-02-18T10:03:44.419Z,12.17
2023-02-18T10:06:25.630Z,12.24
2023-02-18T10:08:55.508Z,12.31
2023-02-18T10:11:29.362Z,12.38
2023-02-18T10:13:57.697Z,12.44
2023-02-18T10:16:25.301Z,12.49
2023-02-18T10:18:59.281Z,12.54
2023-02-18T10:21:33.130Z,12.59
2023-02-18T10:24:19.705Z,12.67
2023-02-18T10:26:46.985Z,12.71
2023-02-18T10:29:21.513Z,12.77
2023-02-18T10:32:03.227Z,12.83
2023-02-18T10:34:41.887Z,12.91
2023-02-18T10:37:24.176Z,12.98
2023-02-18T10:40:12.474Z,13.06
2023-02-18T10:43:20.863Z,13.15
2023-02-18T10:45:47.669Z,13.24
2023-02-18T10:48:48.094Z,13.32
2023-02-18T10:51:22.413Z,13.42
2023-02-18T10:53:52.275Z,13.50
2023-02-18T10:56:39.416Z,13.59
2023-02-18T10:59:33.049Z,13.68
2023-02-18T11:02:05.871Z,13.76
2023-02-18T11:04:39.767Z,13.85
2023-02-18T11:07:13.170Z,13.94
2023-02-18T11:09:57.816Z,14.00
2023-02-18T11:12:24.682Z,14.06
2023-02-18T11:15:14.443Z,14.08
2023-02-18T11:17:43.212Z,14.13
2023-02-18T11:20:25.270Z,14.17
2023-02-18T11:22:52.990Z,14.18
2023-02-18T11:25:22.903Z,14.20
2023-02-18T11:27:58.820Z,14.22
2023-02-18T11:30:38.348Z,14.25
2023-02-18T11:33:41.336Z,14.27
2023-02-18T11:36:31.213Z,14.32
2023-02-18T11:39:04.586Z,14.35
2023-02-18T11:41:38.934Z,14.41
2023-02-18T11:44:17.272Z,14.47
2023-02-18T11:47:03.136Z,14.51
2023-02-18T11:49:31.824Z,14.53
2023-02-18T11:52:15.907Z,14.56
2023-02-18T11:54:42.881Z,14.60
2023-02-18T11:57:14.534Z,14.68
2023-02-18T11:59:42.661Z,14.72
2023-02-18T12:02:09.636Z,14.71
2023-02-18T12:05:14.267Z,14.71
2023-02-18T12:07:55.571Z,14.73
2023-02-18T12:10:34.821Z,14.77
2023-02-18T12:13:20.248Z,14.77
2023-02-18T12:15:54.572Z,14.79
2023-02-18T12:18:49.423Z,14.81
2023-02-18T12:21:45.755Z,14.83
2023-02-18T12:24:25.635Z,14.84
2023-02-18T12:27:05.445Z,14.85
2023-02-18T12:29:32.872Z,14.86
2023-02-18T12:32:22.631Z,14.87
2023-02-18T12:35:11.037Z,14.91
2023-02-18T12:38:24.531Z,14.93
2023-02-18T12:41:24.148Z,14.94
2023-02-18T12:44:12.977Z,14.96
2023-02-18T12:47:19.245Z,14.96
2023-02-18T12:50:23.837Z,14.99
2023-02-18T12:52:56.404Z,15.02
2023-02-18T12:56:05.337Z,15.08
2023-02-18T12:58:54.048Z,15.11
2023-02-18T13:01:40.375Z,15.14
2023-02-18T13:04:25.981Z,15.16
2023-02-18T13:07:14.613Z,15.19
2023-02-18T13:10:01.432Z,15.22
2023-02-18T13:12:39.226Z,15.25
2023-02-18T13:15:31.832Z,15.27
2023-02-18T13:18:03.502Z,15.32
2023-02-18T13:20:42.399Z,15.35
2023-02-18T13:23:23.133Z,15.38
2023-02-18T13:25:58.932Z,15.40
2023-02-18T13:29:05.000Z,15.42
2023-02-18T13:31:50.636Z,15.44
2023-02-18T13:34:42.984Z,15.46
2023-02-18T13:37:36.129Z,15.46
2023-02-18T13:40:04.206Z,15.47
2023-02-18T13:42:31.176Z,15.46
2023-02-18T13:44:58.344Z,15.47
2023-02-18T13:47:46.609Z,15.47
2023-02-18T13:50:22.569Z,15.47
2023-02-18T13:52:51.478Z,15.48
2023-02-18T13:55:21.812Z,15.49
2023-02-18T13:57:53.457Z,15.50
2023-02-18T14:00:36.722Z,15.50
2023-02-18T14:03:31.177Z,15.50
2023-02-18T14:05:58.350Z,15.51
2023-02-18T14:08:34.559Z,15.52
2023-02-18T14:11:13.802Z,15.52
2023-02-18T14:13:55.345Z,15.52
2023-02-18T14:16:22.729Z,15.52
2023-02-18T14:18:59.797Z,15.52
2023-02-18T14:21:44.098Z,15.52
2023-02-18T14:24:12.839Z,15.53
2023-02-18T14:26:44.982Z,15.53
2023-02-18T14:29:26.843Z,15.53
2023-02-18T14:32:10.104Z,15.53
2023-02-18T14:35:10.926Z,15.53
2023-02-18T14:37:57.768Z,15.54
2023-02-18T14:40:39.296Z,15.53
2023-02-18T14:43:34.371Z,15.53
2023-02-18T14:46:39.184Z,15.53
2023-02-18T14:49:06.377Z,15.52
2023-02-18T14:51:35.717Z,15.54
2023-02-18T14:54:13.399Z,15.53
2023-02-18T14:57:01.169Z,15.52
2023-02-18T14:59:31.651Z,15.51
2023-02-18T15:01:59.943Z,15.51
2023-02-18T15:04:27.666Z,15.50
2023-02-18T15:07:05.352Z,15.49
2023-02-18T15:09:32.933Z,15.49
2023-02-18T15:12:04.689Z,15.48
2023-02-18T15:14:39.004Z,15.47
2023-02-18T15:17:13.479Z,15.46
2023-02-18T15:20:06.771Z,15.44
2023-02-18T15:22:36.183Z,15.44
2023-02-18T15:25:04.093Z,15.43
2023-02-18T15:27:38.534Z,15.43
2023-02-18T15:30:12.407Z,15.42
2023-02-18T15:32:39.708Z,15.40
2023-02-18T15:35:17.189Z,15.40
2023-02-18T15:37:53.388Z,15.37
2023-02-18T15:40:27.145Z,15.36
2023-02-18T15:42:58.722Z,15.32
2023-02-18T15:45:33.277Z,15.30
2023-02-18T15:48:02.163Z,15.25
2023-02-18T15:50:35.106Z,15.21
2023-02-18T15:53:14.096Z,15.16
2023-02-18T15:55:43.787Z,15.11
2023-02-18T15:58:17.036Z,15.05
2023-02-18T16:00:53.708Z,15.00
2023-02-18T16:03:29.474Z,14.95
2023-02-18T16:06:22.643Z,14.90
2023-02-18T16:09:00.110Z,14.82
2023-02-18T16:11:35.110Z,14.78
2023-02-18T16:14:02.991Z,14.70
2023-02-18T16:16:36.689Z,14.66
2023-02-18T16:19:04.636Z,14.60
2023-02-18T16:21:38.139Z,14.57
2023-02-18T16:24:24.675Z,14.53
2023-02-18T16:26:57.793Z,14.48
2023-02-18T16:29:36.830Z,14.42
2023-02-18T16:32:07.802Z,14.36
2023-02-18T16:34:35.992Z,14.31
2023-02-18T16:37:22.274Z,14.24
2023-02-18T16:39:53.303Z,14.18
2023-02-18T16:42:22.415Z,14.10
2023-02-18T16:44:52.319Z,14.04
2023-02-18T16:47:20.411Z,13.99
2023-02-18T16:49:50.506Z,13.93
2023-02-18T16:52:19.676Z,13.90
2023-02-18T16:54:50.881Z,13.79
2023-02-18T16:57:19.724Z,13.75
2023-02-18T16:59:49.160Z,13.70
2023-02-18T17:02:21.180Z,13.66
2023-02-18T17:04:49.159Z,13.63
2023-02-18T17:07:16.757Z,13.55
2023-02-18T17:09:47.661Z,13.49
2023-02-18T17:12:16.887Z,13.46
2023-02-18T17:14:46.897Z,13.40
2023-02-18T17:17:14.924Z,13.38
2023-02-18T17:19:42.372Z,13.34
2023-02-18T17:22:13.820Z,13.25
2023-02-18T17:24:43.112Z,13.21
2023-02-18T17:27:11.443Z,13.13
2023-02-18T17:29:39.303Z,13.09
2023-02-18T17:32:09.028Z,13.04
2023-02-18T17:34:38.357Z,13.00
2023-02-18T17:37:06.482Z,12.94
2023-02-18T17:39:34.696Z,12.88
2023-02-18T17:42:03.197Z,12.84
2023-02-18T17:44:31.072Z,12.76
2023-02-18T17:46:59.057Z,12.72
2023-02-18T17:49:26.862Z,12.68
2023-02-18T17:51:58.130Z,12.64
2023-02-18T17:54:28.201Z,12.61
2023-02-18T17:56:56.981Z,12.52
2023-02-18T17:59:25.108Z,12.50
2023-02-18T18:01:52.833Z,12.49
2023-02-18T18:04:21.038Z,12.41
2023-02-18T18:06:50.075Z,12.37
2023-02-18T18:09:18.262Z,12.30
2023-02-18T18:11:47.382Z,12.29
2023-02-18T18:14:16.574Z,12.27
2023-02-18T18:16:44.658Z,12.19
2023-02-18T18:19:15.444Z,12.16
2023-02-18T18:21:45.699Z,12.10
2023-02-18T18:24:13.905Z,12.04
2023-02-18T18:26:42.493Z,11.98
2023-02-18T18:29:10.692Z,12.03
2023-02-18T18:31:39.093Z,11.98
2023-02-18T18:34:07.268Z,11.97
2023-02-18T18:36:35.272Z,11.96
2023-02-18T18:39:03.234Z,11.95
2023-02-18T18:41:31.157Z,11.98
2023-02-18T18:44:00.175Z,11.93
2023-02-18T18:46:28.697Z,11.92
2023-02-18T18:48:56.831Z,11.90
2023-02-18T18:51:32.933Z,11.88
2023-02-18T18:54:02.676Z,11.86
2023-02-18T18:56:31.266Z,11.84
2023-02-18T18:58:59.401Z,11.85
2023-02-18T19:01:29.323Z,11.83
2023-02-18T19:03:57.652Z,11.84
2023-02-18T19:06:26.116Z,11.82
2023-02-18T19:08:54.178Z,11.83
2023-02-18T19:11:24.265Z,11.83
2023-02-18T19:13:53.140Z,11.83
2023-02-18T19:16:50.893Z,11.81
2023-02-18T19:19:21.497Z,11.80
2023-02-18T19:21:49.919Z,11.83
2023-02-18T19:24:18.216Z,11.85
2023-02-18T19:26:46.236Z,11.83
2023-02-18T19:29:14.025Z,11.86
2023-02-18T19:31:43.228Z,11.85
2023-02-18T19:34:11.438Z,11.86
2023-02-18T19:36:39.071Z,11.93
2023-02-18T19:39:07.164Z,11.93
2023-02-18T19:41:35.230Z,11.97
2023-02-18T19:44:05.974Z,12.04
2023-02-18T19:46:34.736Z,12.07
2023-02-18T19:49:05.609Z,12.13
2023-02-18T19:51:33.915Z,12.19
2023-02-18T19:54:02.586Z,12.25
2023-02-18T19:56:30.750Z,12.36
2023-02-18T19:59:00.153Z,12.44
2023-02-18T20:01:28.429Z,12.53
2023-02-18T20:03:56.554Z,12.62
2023-02-18T20:06:25.257Z,12.69
2023-02-18T20:08:55.133Z,12.76
2023-02-18T20:11:23.515Z,12.84
2023-02-18T20:13:51.318Z,12.93
2023-02-18T20:16:20.095Z,13.01
2023-02-18T20:18:49.457Z,13.09
2023-02-18T20:21:17.718Z,13.15
2023-02-18T20:23:46.113Z,13.21
2023-02-18T20:26:15.134Z,13.27
2023-02-18T20:28:43.099Z,13.31
2023-02-18T20:31:14.372Z,13.36
2023-02-18T20:33:44.074Z,13.40
2023-02-18T20:36:14.766Z,13.45
2023-02-18T20:38:43.705Z,13.48
2023-02-18T20:41:14.832Z,13.52
2023-02-18T20:43:42.949Z,13.57
2023-02-18T20:46:17.103Z,13.59
2023-02-18T20:48:47.154Z,13.62
2023-02-18T20:51:18.209Z,13.66
2023-02-18T20:53:48.751Z,13.69
2023-02-18T20:56:19.588Z,13.73
2023-02-18T20:58:49.200Z,13.77
2023-02-18T21:01:22.277Z,13.80
2023-02-18T21:03:50.525Z,13.83
2023-02-18T21:06:22.660Z,13.85
2023-02-18T21:08:55.383Z,13.88
2023-02-18T21:11:25.861Z,13.89
2023-02-18T21:13:56.804Z,13.92
2023-02-18T21:16:27.516Z,13.94
2023-02-18T21:18:56.084Z,13.95
2023-02-18T21:21:25.355Z,13.99
2023-02-18T21:23:54.118Z,14.00
2023-02-18T21:26:28.084Z,14.00
2023-02-18T21:29:01.709Z,14.03
2023-02-18T21:31:32.929Z,14.04
2023-02-18T21:34:01.627Z,14.05
2023-02-18T21:36:31.302Z,14.07
2023-02-18T21:39:01.492Z,14.08
2023-02-18T21:41:30.985Z,14.09
2023-02-18T21:43:58.555Z,14.11
2023-02-18T21:46:29.398Z,14.13
2023-02-18T21:49:07.272Z,14.13
2023-02-18T21:51:56.651Z,14.14
2023-02-18T21:54:28.042Z,14.15
2023-02-18T21:56:58.796Z,14.15
2023-02-18T21:59:29.845Z,14.15
2023-02-18T22:02:00.427Z,14.17
2023-02-18T22:04:29.190Z,14.16
2023-02-18T22:06:56.185Z,14.16
2023-02-18T22:09:23.117Z,14.16
2023-02-18T22:11:50.865Z,14.15
2023-02-18T22:14:18.085Z,14.16
2023-02-18T22:16:45.340Z,14.15
2023-02-18T22:19:13.673Z,14.14
2023-02-18T22:21:41.717Z,14.14
2023-02-18T22:24:09.218Z,14.14
2023-02-18T22:26:36.088Z,14.13
2023-02-18T22:29:04.201Z,14.13
2023-02-18T22:31:32.439Z,14.13
2023-02-18T22:34:00.790Z,14.13
2023-02-18T22:36:29.012Z,14.13
2023-02-18T22:38:57.490Z,14.14
2023-02-18T22:41:26.050Z,14.14
2023-02-18T22:44:01.303Z,14.13
2023-02-18T22:46:31.421Z,14.16
2023-02-18T22:48:59.313Z,14.14
2023-02-18T22:51:29.159Z,14.14
2023-02-18T22:53:58.290Z,14.13
2023-02-18T22:56:27.313Z,14.12
2023-02-18T22:58:55.670Z,14.10
2023-02-18T23:01:34.388Z,14.10
2023-02-18T23:04:20.853Z,14.07
2023-02-18T23:06:48.636Z,14.07
2023-02-18T23:09:18.936Z,14.05
2023-02-18T23:11:45.960Z,14.03
2023-02-18T23:14:18.566Z,14.03
2023-02-18T23:17:08.262Z,14.01
2023-02-18T23:19:37.033Z,14.01
2023-02-18T23:22:04.225Z,14.00
2023-02-18T23:24:36.179Z,14.00
2023-02-18T23:27:03.874Z,14.01
2023-02-18T23:29:30.758Z,14.00
2023-02-18T23:31:57.630Z,14.00
2023-02-18T23:34:24.468Z,14.00
2023-02-18T23:36:51.250Z,13.99
2023-02-18T23:39:20.817Z,13.97
2023-02-18T23:41:48.281Z,13.96
2023-02-18T23:44:17.804Z,13.94
2023-02-18T23:46:45.110Z,13.92
2023-02-18T23:49:22.216Z,13.91
2023-02-18T23:51:50.272Z,13.88
2023-02-18T23:54:17.300Z,13.85
2023-02-18T23:56:44.384Z,13.82
2023-02-18T23:59:12.311Z,13.80
